This is the latest recevied weather packets stored in our database for station/object XE2MEM-21. If no packets are shown the sender has not sent any weather packets the latest 10 day(s).
| Time | Temp. | Humidity | Pressure | Rain* | Wind** | Luminosity | Snow |
|---|---|---|---|---|---|---|---|
| 1777948049 | 26.11° C | 100% | 1006.9 hPa | - | - | - | - |
| 1777947149 | 26.67° C | 100% | 1006.9 hPa | - | - | - | - |
| 1777946249 | 26.67° C | 100% | 1006.6 hPa | - | - | - | - |
| 1777945349 | 26.67° C | 100% | 1006.6 hPa | - | - | - | - |
| 1777944449 | 26.67° C | 100% | 1006.5 hPa | - | - | - | - |
| 1777943549 | 27.22° C | 100% | 1006.5 hPa | - | - | - | - |
| 1777942649 | 27.22° C | 100% | 1006.7 hPa | - | - | - | - |
| 1777941748 | 27.78° C | 100% | 1006.5 hPa | - | - | - | - |
| 1777940848 | 27.78° C | 100% | 1006.5 hPa | - | - | - | - |
| 1777939948 | 28.33° C | 98% | 1006.5 hPa | - | - | - | - |
| 1777939048 | 28.33° C | 99% | 1006.8 hPa | - | - | - | - |
| 1777938148 | 28.33° C | 97% | 1006.7 hPa | - | - | - | - |
| 1777937248 | 28.89° C | 95% | 1006.7 hPa | - | - | - | - |
| 1777936348 | 28.89° C | 93% | 1006.8 hPa | - | - | - | - |
| 1777935448 | 29.44° C | 88% | 1006.7 hPa | - | - | - | - |
| 1777934548 | 28.89° C | 91% | 1006.8 hPa | - | - | - | - |
| 1777933648 | 30° C | 87% | 1006.6 hPa | - | - | - | - |
| 1777932748 | 30° C | 88% | 1006.7 hPa | - | - | - | - |
| 1777931847 | 29.44° C | 90% | 1007 hPa | - | - | - | - |
| 1777930947 | 30° C | 87% | 1007 hPa | - | - | - | - |
| 1777930047 | 30.56° C | 85% | 1007.2 hPa | - | - | - | - |
| 1777929147 | 30.56° C | 83% | 1007.3 hPa | - | - | - | - |
| 1777928247 | 30.56° C | 83% | 1007.5 hPa | - | - | - | - |
| 1777927347 | 30.56° C | 84% | 1007.7 hPa | - | - | - | - |
| 1777926447 | 30° C | 88% | 1008 hPa | - | - | - | - |
* Rain since midnight (hover to see other rain measurements)
** Current wind speed in m/s (hover to see current wind gust speed)